Time;durP1;ratioP1;P1;durP2;ratioP2;P2;SDS_P1;SDS_P2;PMS_P1;PMS_P2;Temp;Humidity;BMP_temperature;BMP_pressure;BME280_temperature;BME280_humidity;BME280_pressure;Samples;Min_cycle;Max_cycle;Signal;HPM_P1;HPM_P2
2024/01/23 00:00:28;;;;;;;12.98;1.63;;;6.80;99.90;;;;;;5057183;28;20041;-73
2024/01/23 00:02:54;;;;;;;3.60;0.93;;;6.90;99.90;;;;;;5023557;28;20053;-73
2024/01/23 00:05:20;;;;;;;6.03;1.45;;;6.90;99.90;;;;;;5027411;28;20072;-73
2024/01/23 00:07:45;;;;;;;4.57;0.90;;;6.90;99.90;;;;;;5039909;28;20112;-73
2024/01/23 00:10:11;;;;;;;14.82;1.42;;;7.00;99.90;;;;;;5042203;28;20041;-73
2024/01/23 00:12:37;;;;;;;9.48;1.45;;;7.00;99.90;;;;;;5052673;28;20114;-73
2024/01/23 00:15:03;;;;;;;8.35;1.08;;;7.00;99.90;;;;;;5022946;28;20345;-73
2024/01/23 00:17:29;;;;;;;6.68;0.77;;;7.00;99.90;;;;;;5037461;28;20048;-73
2024/01/23 00:19:55;;;;;;;4.32;0.93;;;6.90;99.90;;;;;;5055309;28;20042;-73
2024/01/23 00:22:21;;;;;;;1.25;0.47;;;6.80;99.90;;;;;;5060664;28;20040;-73
2024/01/23 00:24:47;;;;;;;4.40;1.10;;;6.80;99.90;;;;;;5043885;28;20098;-73
2024/01/23 00:27:13;;;;;;;6.43;0.90;;;6.70;99.90;;;;;;5045695;28;20106;-74
2024/01/23 00:29:38;;;;;;;13.23;1.52;;;6.70;99.90;;;;;;5045783;28;20048;-73
2024/01/23 00:32:05;;;;;;;5.88;1.23;;;6.60;99.90;;;;;;5061807;28;20778;-73
2024/01/23 00:34:30;;;;;;;7.38;1.00;;;6.60;99.90;;;;;;5045387;28;20123;-73
2024/01/23 00:36:58;;;;;;;5.00;1.05;;;6.60;99.90;;;;;;5056430;28;20563;-73
2024/01/23 00:39:24;;;;;;;0.95;0.68;;;6.50;99.90;;;;;;5056256;28;20094;-74
2024/01/23 00:41:50;;;;;;;6.68;1.13;;;6.50;99.90;;;;;;5038688;28;20041;-74
2024/01/23 00:44:16;;;;;;;6.15;1.08;;;6.40;99.90;;;;;;5056662;28;20044;-73
2024/01/23 00:46:42;;;;;;;9.02;1.35;;;6.50;99.90;;;;;;5058072;28;20146;-74
2024/01/23 00:49:07;;;;;;;4.93;0.65;;;6.50;99.90;;;;;;5025134;28;20041;-73
2024/01/23 00:51:33;;;;;;;10.25;1.88;;;6.50;99.90;;;;;;5042697;28;20109;-73
2024/01/23 00:54:00;;;;;;;7.18;1.00;;;6.60;99.90;;;;;;5041931;28;20116;-73
2024/01/23 00:56:26;;;;;;;8.07;1.05;;;6.70;99.90;;;;;;5044266;28;20053;-73
2024/01/23 00:58:52;;;;;;;9.77;1.40;;;6.70;99.90;;;;;;5042760;28;20120;-73
2024/01/23 01:01:17;;;;;;;5.38;0.98;;;6.70;99.90;;;;;;5046519;28;20503;-73
2024/01/23 01:03:43;;;;;;;11.30;1.65;;;6.70;99.90;;;;;;5043670;28;20048;-74
2024/01/23 01:06:09;;;;;;;9.15;2.28;;;6.70;99.90;;;;;;5057574;28;20041;-73
2024/01/23 01:08:34;;;;;;;9.93;0.88;;;6.70;99.90;;;;;;5044720;28;20052;-73
2024/01/23 01:11:00;;;;;;;7.65;1.23;;;6.70;99.90;;;;;;5042020;28;20045;-73
2024/01/23 01:13:26;;;;;;;0.70;0.43;;;6.60;99.90;;;;;;5057702;28;20043;-73
2024/01/23 01:15:52;;;;;;;9.98;1.73;;;6.60;99.90;;;;;;5047318;28;20049;-73
2024/01/23 01:18:17;;;;;;;10.25;1.52;;;6.60;99.90;;;;;;5044858;28;20800;-73
2024/01/23 01:20:44;;;;;;;11.95;1.08;;;6.50;99.90;;;;;;5043291;28;20123;-73
2024/01/23 01:23:10;;;;;;;10.10;1.13;;;6.50;99.90;;;;;;5044450;28;20044;-73
2024/01/23 01:25:36;;;;;;;9.77;1.70;;;6.50;99.90;;;;;;5039577;28;20075;-73
2024/01/23 01:28:02;;;;;;;3.63;0.85;;;6.60;99.90;;;;;;5057381;28;20045;-73
2024/01/23 01:30:29;;;;;;;13.27;1.58;;;6.60;99.90;;;;;;5039927;28;20136;-73
2024/01/23 01:32:55;;;;;;;9.02;1.17;;;6.60;99.90;;;;;;5044323;28;20049;-73
2024/01/23 01:35:21;;;;;;;6.57;0.95;;;6.60;99.90;;;;;;5043796;28;20069;-73
2024/01/23 01:37:46;;;;;;;4.63;0.82;;;6.70;99.90;;;;;;5041484;28;20496;-73
2024/01/23 01:40:15;;;;;;;1.92;1.20;;;6.70;99.90;;;;;;5040324;28;20057;-73
2024/01/23 01:42:43;;;;;;;3.50;0.20;;;6.60;99.90;;;;;;5038807;28;20056;-73
2024/01/23 01:45:10;;;;;;;3.92;1.20;;;6.70;99.90;;;;;;5055092;28;20079;-73
2024/01/23 01:47:38;;;;;;;8.07;0.90;;;6.60;99.90;;;;;;5042268;28;20033;-73
2024/01/23 01:50:05;;;;;;;10.80;3.03;;;6.60;99.90;;;;;;5045419;28;20052;-73
2024/01/23 01:52:32;;;;;;;6.65;1.20;;;6.60;99.90;;;;;;5061933;28;20056;-73
2024/01/23 01:54:59;;;;;;;8.93;1.85;;;6.60;99.90;;;;;;5039357;28;20509;-74
2024/01/23 01:57:27;;;;;;;14.55;2.20;;;6.60;99.90;;;;;;5024342;28;20047;-73
2024/01/23 01:59:53;;;;;;;10.32;1.77;;;6.60;99.90;;;;;;5060455;28;20084;-73
2024/01/23 02:02:20;;;;;;;7.03;1.20;;;6.50;99.90;;;;;;5023847;28;20049;-73
2024/01/23 02:04:46;;;;;;;2.78;1.38;;;6.50;99.90;;;;;;5041960;28;20045;-73
2024/01/23 02:07:11;;;;;;;4.80;1.08;;;6.50;99.90;;;;;;5041803;28;20049;-74
2024/01/23 02:09:37;;;;;;;9.13;1.00;;;6.50;99.90;;;;;;5057771;28;20045;-73
2024/01/23 02:12:07;;;;;;;8.00;1.10;;;6.50;99.90;;;;;;5063398;28;20536;-73
2024/01/23 02:14:33;;;;;;;7.03;1.05;;;6.50;99.90;;;;;;5048281;28;20053;-73
2024/01/23 02:16:58;;;;;;;4.85;1.95;;;6.40;99.90;;;;;;5002755;28;20045;-73
2024/01/23 02:19:26;;;;;;;8.18;1.17;;;6.40;99.90;;;;;;5040203;28;20076;-73
2024/01/23 02:21:53;;;;;;;6.28;1.42;;;6.30;99.90;;;;;;5057133;28;20063;-73
2024/01/23 02:24:19;;;;;;;10.50;1.05;;;6.30;99.90;;;;;;5041885;28;20045;-73
2024/01/23 02:26:45;;;;;;;2.83;1.10;;;6.30;99.90;;;;;;5058053;28;20075;-73
2024/01/23 02:29:11;;;;;;;11.80;1.35;;;6.20;99.90;;;;;;5041362;28;20037;-74
2024/01/23 02:31:38;;;;;;;6.78;2.00;;;6.20;99.90;;;;;;5040470;28;20045;-73
2024/01/23 02:34:04;;;;;;;3.80;0.85;;;6.30;99.90;;;;;;5023242;28;20045;-73
2024/01/23 02:36:29;;;;;;;12.68;1.75;;;6.20;99.90;;;;;;5039955;28;20040;-74
2024/01/23 02:38:55;;;;;;;4.63;0.80;;;6.10;99.90;;;;;;5054500;28;20094;-73
2024/01/23 02:41:21;;;;;;;10.43;1.30;;;6.10;99.90;;;;;;5041220;28;20108;-73
2024/01/23 02:43:47;;;;;;;11.32;1.00;;;6.10;99.90;;;;;;5023263;28;20476;-73
2024/01/23 02:46:12;;;;;;;1.98;1.10;;;6.10;99.90;;;;;;5042239;28;20053;-73
2024/01/23 02:48:38;;;;;;;10.90;1.10;;;6.00;99.90;;;;;;5022275;28;20104;-73
2024/01/23 02:51:03;;;;;;;4.30;1.05;;;6.00;99.90;;;;;;5019251;28;20041;-73
2024/01/23 02:53:29;;;;;;;4.63;1.23;;;6.00;99.90;;;;;;5055108;28;20101;-74
2024/01/23 02:55:55;;;;;;;7.30;1.45;;;6.00;99.90;;;;;;5023602;28;20056;-73
2024/01/23 02:58:21;;;;;;;15.30;1.27;;;6.00;99.90;;;;;;5058033;28;20049;-73
2024/01/23 03:00:47;;;;;;;8.63;1.13;;;6.00;99.90;;;;;;5056044;28;20544;-73
2024/01/23 03:03:13;;;;;;;6.18;0.73;;;6.00;99.90;;;;;;5038760;28;20070;-73
2024/01/23 03:05:39;;;;;;;11.00;1.17;;;6.00;99.90;;;;;;5022952;28;20096;-73
2024/01/23 03:08:05;;;;;;;2.45;1.00;;;6.00;99.90;;;;;;5053220;28;20079;-73
2024/01/23 03:10:30;;;;;;;3.65;1.17;;;6.00;99.90;;;;;;5022799;28;20102;-73
2024/01/23 03:12:56;;;;;;;8.57;1.45;;;6.00;99.90;;;;;;5040801;28;20081;-73
2024/01/23 03:15:22;;;;;;;8.35;0.95;;;6.10;99.90;;;;;;5041171;28;20056;-73
2024/01/23 03:17:48;;;;;;;7.82;1.25;;;6.20;99.90;;;;;;5024972;28;20077;-73
2024/01/23 03:20:13;;;;;;;9.32;1.33;;;6.20;99.90;;;;;;5039472;28;20124;-73
2024/01/23 03:22:39;;;;;;;23.92;2.70;;;6.30;99.90;;;;;;5055721;28;20036;-73
2024/01/23 03:25:05;;;;;;;5.07;1.67;;;6.30;99.90;;;;;;5021257;28;20048;-73
2024/01/23 03:27:31;;;;;;;9.40;1.35;;;6.30;99.90;;;;;;5070916;28;20080;-73
2024/01/23 03:29:57;;;;;;;11.63;1.83;;;6.40;99.90;;;;;;5039739;28;20063;-73
2024/01/23 03:32:23;;;;;;;10.02;1.52;;;6.50;99.90;;;;;;5040255;28;20072;-73
2024/01/23 03:34:49;;;;;;;4.15;1.48;;;6.50;99.90;;;;;;5057886;28;20079;-73
2024/01/23 03:37:15;;;;;;;11.25;1.73;;;6.50;99.90;;;;;;5025729;28;20061;-73
2024/01/23 03:39:41;;;;;;;11.00;1.45;;;6.50;99.90;;;;;;5042284;28;20041;-73
2024/01/23 03:42:07;;;;;;;13.48;1.63;;;6.60;99.90;;;;;;5053649;28;20041;-73
2024/01/23 03:44:33;;;;;;;14.90;1.42;;;6.50;99.90;;;;;;5024238;28;20074;-73
2024/01/23 03:46:58;;;;;;;7.60;1.27;;;6.50;99.90;;;;;;5039117;28;20041;-73
2024/01/23 03:49:24;;;;;;;12.75;1.30;;;6.60;99.90;;;;;;5039978;28;20068;-73
2024/01/23 03:51:51;;;;;;;11.05;1.55;;;6.60;99.90;;;;;;5040771;28;20036;-73
2024/01/23 03:54:17;;;;;;;12.50;1.38;;;6.60;99.90;;;;;;5057449;28;20052;-73
2024/01/23 03:56:42;;;;;;;13.23;1.60;;;6.60;99.90;;;;;;5055369;28;20053;-73
2024/01/23 03:59:09;;;;;;;9.85;1.25;;;6.60;99.90;;;;;;5023575;28;20096;-73
2024/01/23 04:01:35;;;;;;;13.30;1.38;;;6.60;99.90;;;;;;5047238;28;20057;-73
2024/01/23 04:04:01;;;;;;;7.00;1.55;;;6.60;99.90;;;;;;5037451;28;20037;-73
2024/01/23 04:06:27;;;;;;;6.28;1.30;;;6.70;99.90;;;;;;5061807;28;20053;-73
2024/01/23 04:08:53;;;;;;;8.60;1.80;;;6.70;99.90;;;;;;5046602;28;20037;-73
2024/01/23 04:11:18;;;;;;;2.28;1.10;;;6.70;99.90;;;;;;5062745;28;20051;-73
2024/01/23 04:13:44;;;;;;;8.98;1.55;;;6.70;99.90;;;;;;5028098;28;20510;-73
2024/01/23 04:16:10;;;;;;;6.15;1.00;;;6.70;99.90;;;;;;5020747;28;20052;-73
2024/01/23 04:18:36;;;;;;;8.40;1.58;;;6.70;99.90;;;;;;5043056;28;20049;-73
2024/01/23 04:21:02;;;;;;;2.38;0.93;;;6.70;99.90;;;;;;5033369;28;20106;-74
2024/01/23 04:23:28;;;;;;;6.10;1.23;;;6.70;99.90;;;;;;5041864;28;20098;-73
2024/01/23 04:25:54;;;;;;;8.45;1.98;;;6.70;99.90;;;;;;5045341;28;20047;-73
2024/01/23 04:28:20;;;;;;;7.82;1.50;;;6.70;99.90;;;;;;5060506;28;20041;-74
2024/01/23 04:30:46;;;;;;;4.75;1.13;;;6.70;99.90;;;;;;5026577;28;20098;-73
2024/01/23 04:33:12;;;;;;;6.07;0.98;;;6.60;99.90;;;;;;5059146;28;20037;-73
2024/01/23 04:35:38;;;;;;;6.97;1.00;;;6.60;99.90;;;;;;5044128;28;20080;-73
2024/01/23 04:38:03;;;;;;;6.05;1.40;;;6.60;99.90;;;;;;5025794;28;20045;-73
2024/01/23 04:40:29;;;;;;;16.90;2.08;;;6.60;99.90;;;;;;5059088;28;20045;-74
2024/01/23 04:42:55;;;;;;;5.63;1.55;;;6.60;99.90;;;;;;5043096;28;20045;-73
2024/01/23 04:45:20;;;;;;;20.55;2.72;;;6.60;99.90;;;;;;5059265;28;20079;-73
2024/01/23 04:47:46;;;;;;;11.73;1.25;;;6.60;99.90;;;;;;5023988;28;20046;-73
2024/01/23 04:50:12;;;;;;;6.32;1.17;;;6.60;99.90;;;;;;5057847;28;20239;-73
2024/01/23 04:52:37;;;;;;;4.43;1.15;;;6.70;99.90;;;;;;5042594;28;20045;-73
2024/01/23 04:55:05;;;;;;;10.88;2.15;;;6.70;99.90;;;;;;5046094;28;20045;-73
2024/01/23 04:57:31;;;;;;;4.85;1.25;;;6.70;99.90;;;;;;5041517;28;20060;-73
2024/01/23 04:59:58;;;;;;;2.47;1.10;;;6.70;99.90;;;;;;5043209;28;20055;-73
2024/01/23 05:02:24;;;;;;;10.77;2.17;;;6.70;99.90;;;;;;5058598;28;20037;-73
2024/01/23 05:04:49;;;;;;;10.80;1.63;;;6.70;99.90;;;;;;5027603;28;20116;-73
2024/01/23 05:07:15;;;;;;;10.45;1.23;;;6.70;99.90;;;;;;5042068;28;20029;-73
2024/01/23 05:09:41;;;;;;;7.72;1.42;;;6.70;99.90;;;;;;5041636;28;20052;-74
2024/01/23 05:12:07;;;;;;;5.35;1.88;;;6.70;99.90;;;;;;5056540;28;20045;-73
2024/01/23 05:14:33;;;;;;;10.30;1.42;;;6.70;99.90;;;;;;5025400;28;20056;-73
2024/01/23 05:16:58;;;;;;;3.60;1.23;;;6.80;99.90;;;;;;5027480;28;20136;-73
2024/01/23 05:19:24;;;;;;;23.63;2.08;;;6.80;99.90;;;;;;5025230;28;20036;-73
2024/01/23 05:21:50;;;;;;;6.85;1.23;;;6.80;99.90;;;;;;5042322;28;20087;-73
2024/01/23 05:24:17;;;;;;;14.65;2.17;;;6.80;99.90;;;;;;5043312;28;20045;-74
2024/01/23 05:26:43;;;;;;;16.50;2.40;;;6.80;99.90;;;;;;5040760;28;20053;-74
2024/01/23 05:29:08;;;;;;;7.45;1.10;;;6.80;99.90;;;;;;5056335;28;20040;-74
2024/01/23 05:31:34;;;;;;;1.88;1.30;;;6.90;99.90;;;;;;5025081;28;20091;-74
2024/01/23 05:34:00;;;;;;;14.20;1.25;;;6.90;99.90;;;;;;5039292;28;20044;-74
2024/01/23 05:36:25;;;;;;;16.88;1.80;;;6.90;99.90;;;;;;5060938;28;20036;-73
2024/01/23 05:38:51;;;;;;;7.03;1.38;;;6.80;99.90;;;;;;5058964;28;20036;-73
2024/01/23 05:41:17;;;;;;;7.95;1.58;;;6.80;99.90;;;;;;5027565;28;20049;-73
2024/01/23 05:43:43;;;;;;;5.65;1.40;;;6.80;99.90;;;;;;5042614;28;20045;-73
2024/01/23 05:46:09;;;;;;;10.07;1.92;;;6.80;99.90;;;;;;5043548;28;20094;-73
2024/01/23 05:48:35;;;;;;;13.60;1.25;;;6.80;99.90;;;;;;5026067;28;20053;-74
2024/01/23 05:51:00;;;;;;;20.13;1.95;;;6.80;99.90;;;;;;5058281;28;20052;-73
2024/01/23 05:53:26;;;;;;;9.30;0.98;;;6.70;99.90;;;;;;5009724;28;20037;-74
2024/01/23 05:55:53;;;;;;;8.13;1.40;;;6.70;99.90;;;;;;5058023;28;20067;-74
2024/01/23 05:58:18;;;;;;;9.95;1.73;;;6.70;99.90;;;;;;5025280;28;20056;-73
2024/01/23 06:00:44;;;;;;;17.00;2.78;;;6.70;99.90;;;;;;5052839;28;20040;-74
2024/01/23 06:03:10;;;;;;;4.93;0.80;;;6.70;99.90;;;;;;5023382;28;20498;-74
2024/01/23 06:05:36;;;;;;;13.23;2.22;;;6.70;99.90;;;;;;5041728;28;20067;-74
2024/01/23 06:08:03;;;;;;;9.05;1.88;;;6.80;99.90;;;;;;5056507;28;20456;-73
2024/01/23 06:10:28;;;;;;;10.93;1.52;;;6.70;99.90;;;;;;5024770;28;20049;-74
2024/01/23 06:12:54;;;;;;;11.80;1.30;;;6.80;99.90;;;;;;5039149;28;20033;-74
2024/01/23 06:15:20;;;;;;;9.50;1.42;;;6.80;99.90;;;;;;5021931;28;20101;-73
2024/01/23 06:17:46;;;;;;;11.85;1.60;;;6.80;99.90;;;;;;5043749;28;20067;-74
2024/01/23 06:20:12;;;;;;;16.90;1.77;;;6.80;99.90;;;;;;5039201;28;20117;-74
2024/01/23 06:22:39;;;;;;;13.95;2.15;;;6.80;99.90;;;;;;5059901;28;20083;-73
2024/01/23 06:25:07;;;;;;;10.50;1.65;;;6.80;99.90;;;;;;5055958;28;20096;-73
2024/01/23 06:27:33;;;;;;;8.00;1.27;;;6.80;99.90;;;;;;5024319;28;20554;-74
2024/01/23 06:29:59;;;;;;;13.85;2.67;;;6.80;99.90;;;;;;5055908;28;20041;-74
2024/01/23 06:32:26;;;;;;;11.50;1.38;;;6.80;99.90;;;;;;5025028;28;20060;-73
2024/01/23 06:34:51;;;;;;;16.40;1.60;;;6.80;99.90;;;;;;5050371;28;20029;-74
2024/01/23 06:37:18;;;;;;;9.55;1.60;;;6.80;99.90;;;;;;5055623;28;20049;-74
2024/01/23 06:39:44;;;;;;;7.90;1.50;;;6.80;99.90;;;;;;5051908;28;20048;-74
2024/01/23 06:42:09;;;;;;;9.65;2.03;;;6.80;99.90;;;;;;5021476;28;20072;-74
2024/01/23 06:44:35;;;;;;;11.80;1.67;;;6.80;99.90;;;;;;5038568;28;20100;-74
2024/01/23 06:47:01;;;;;;;10.13;1.90;;;6.80;99.90;;;;;;5039792;28;20045;-74
2024/01/23 06:49:27;;;;;;;17.13;1.85;;;6.80;99.90;;;;;;5036951;28;20053;-73
2024/01/23 06:51:52;;;;;;;4.40;1.00;;;6.80;99.90;;;;;;5021984;28;20041;-73
2024/01/23 06:54:18;;;;;;;8.95;1.13;;;6.80;99.90;;;;;;5040294;28;20044;-74
2024/01/23 06:56:45;;;;;;;5.88;1.38;;;6.70;99.90;;;;;;5057873;28;20048;-73
2024/01/23 06:59:12;;;;;;;11.07;1.90;;;6.80;99.90;;;;;;5038600;28;20072;-73
2024/01/23 07:01:38;;;;;;;20.90;2.83;;;6.80;99.90;;;;;;5058987;28;20049;-74
2024/01/23 07:04:04;;;;;;;8.85;1.50;;;6.70;99.90;;;;;;5022406;28;20097;-73
2024/01/23 07:06:30;;;;;;;9.40;1.48;;;6.70;99.90;;;;;;5036638;28;20080;-74
2024/01/23 07:08:55;;;;;;;10.30;1.73;;;6.60;99.90;;;;;;5056444;28;20063;-74
2024/01/23 07:11:21;;;;;;;17.25;1.33;;;6.60;99.90;;;;;;5022190;28;20041;-74
2024/01/23 07:13:47;;;;;;;10.57;1.55;;;6.60;99.90;;;;;;5043954;28;20048;-73
2024/01/23 07:16:13;;;;;;;4.85;1.02;;;6.60;99.90;;;;;;5036506;28;20053;-74
2024/01/23 07:18:39;;;;;;;13.52;2.17;;;6.50;99.90;;;;;;5023765;28;20045;-73
2024/01/23 07:21:05;;;;;;;3.72;1.52;;;6.50;99.90;;;;;;5056939;28;20048;-74
2024/01/23 07:23:30;;;;;;;11.02;1.60;;;6.50;99.90;;;;;;5038742;28;20048;-74
2024/01/23 07:25:58;;;;;;;9.25;1.90;;;6.50;99.90;;;;;;5032493;28;20149;-74
2024/01/23 07:28:24;;;;;;;10.93;2.05;;;6.40;99.90;;;;;;5044942;28;20055;-74
2024/01/23 07:30:49;;;;;;;7.72;1.77;;;6.40;99.90;;;;;;5038905;28;20052;-74
2024/01/23 07:33:15;;;;;;;10.80;1.60;;;6.30;99.90;;;;;;5019295;28;20042;-73
2024/01/23 07:35:41;;;;;;;14.07;2.60;;;6.30;99.90;;;;;;5038444;28;20033;-73
2024/01/23 07:38:10;;;;;;;16.70;2.17;;;6.30;99.90;;;;;;5052997;28;20044;-74
2024/01/23 07:40:37;;;;;;;7.97;1.30;;;6.20;99.90;;;;;;5041535;28;20055;-73
2024/01/23 07:43:05;;;;;;;16.13;2.22;;;6.20;99.90;;;;;;5057546;28;20052;-73
2024/01/23 07:45:31;;;;;;;13.77;1.40;;;6.10;99.90;;;;;;5023712;28;20045;-73
2024/01/23 07:47:57;;;;;;;16.10;2.15;;;6.00;99.90;;;;;;5031689;28;20094;-73
2024/01/23 07:50:22;;;;;;;17.77;2.53;;;6.00;99.90;;;;;;5045138;28;20068;-73
2024/01/23 07:52:48;;;;;;;6.00;1.20;;;6.00;99.90;;;;;;5035692;28;20071;-73
2024/01/23 07:55:14;;;;;;;5.88;1.48;;;6.00;99.90;;;;;;5018288;28;20065;-73
2024/01/23 07:57:40;;;;;;;8.60;1.95;;;5.90;99.90;;;;;;5035848;28;20045;-73
2024/01/23 08:00:07;;;;;;;9.05;1.60;;;6.00;99.90;;;;;;5019061;28;20124;-73
2024/01/23 08:02:32;;;;;;;12.93;1.85;;;5.90;99.90;;;;;;5038092;28;20037;-73
2024/01/23 08:04:59;;;;;;;23.80;4.20;;;6.00;99.90;;;;;;5037838;28;20110;-73
2024/01/23 08:07:25;;;;;;;13.77;1.42;;;6.00;99.90;;;;;;5019853;28;20052;-73
2024/01/23 08:09:51;;;;;;;17.63;1.90;;;6.00;99.90;;;;;;5022986;28;20033;-73
2024/01/23 08:12:17;;;;;;;13.15;2.03;;;6.00;99.90;;;;;;5017535;28;20090;-73
2024/01/23 08:14:43;;;;;;;11.90;2.50;;;6.00;99.90;;;;;;5019342;28;20173;-73
2024/01/23 08:17:10;;;;;;;17.27;2.67;;;6.00;99.90;;;;;;5039769;28;20488;-73
2024/01/23 08:19:37;;;;;;;10.15;2.50;;;5.90;99.90;;;;;;5038106;28;20100;-73
2024/01/23 08:22:03;;;;;;;22.05;2.75;;;6.00;99.90;;;;;;5054181;28;20059;-74
2024/01/23 08:24:29;;;;;;;12.18;2.97;;;5.90;99.90;;;;;;5036378;28;20045;-74
2024/01/23 08:26:55;;;;;;;13.13;2.35;;;5.90;99.90;;;;;;5056011;28;20056;-73
2024/01/23 08:29:20;;;;;;;17.25;3.00;;;5.90;99.90;;;;;;5017918;28;20055;-73
2024/01/23 08:31:46;;;;;;;12.95;2.15;;;5.90;99.90;;;;;;5034590;28;20088;-73
2024/01/23 08:34:12;;;;;;;12.07;2.22;;;5.90;99.90;;;;;;5052318;28;20041;-73
2024/01/23 08:36:37;;;;;;;12.18;1.98;;;6.00;99.90;;;;;;5024297;28;20076;-73
2024/01/23 08:39:04;;;;;;;15.63;1.98;;;6.00;99.90;;;;;;5002604;28;20042;-73
2024/01/23 08:41:30;;;;;;;8.32;1.52;;;6.00;99.90;;;;;;5055568;28;20061;-73
2024/01/23 08:43:56;;;;;;;5.43;2.20;;;6.00;99.90;;;;;;5018577;28;20052;-73
2024/01/23 08:46:22;;;;;;;13.63;1.63;;;6.10;99.90;;;;;;5055709;28;20052;-73
2024/01/23 08:48:51;;;;;;;10.20;0.95;;;6.10;99.90;;;;;;5024717;28;20040;-73
2024/01/23 08:51:17;;;;;;;6.60;2.13;;;6.20;99.90;;;;;;5041526;28;20452;-74
2024/01/23 08:53:43;;;;;;;31.10;2.95;;;6.20;99.90;;;;;;5080690;28;20087;-74
2024/01/23 08:56:09;;;;;;;13.57;3.38;;;6.20;99.90;;;;;;5063343;28;20092;-74
2024/01/23 08:58:35;;;;;;;8.50;1.38;;;6.30;99.90;;;;;;5063679;28;20099;-74
2024/01/23 09:01:00;;;;;;;18.85;2.13;;;6.40;99.90;;;;;;5080957;28;20083;-74
2024/01/23 09:03:26;;;;;;;10.50;1.52;;;6.40;99.90;;;;;;5042641;28;20060;-74
2024/01/23 09:05:52;;;;;;;13.45;2.25;;;6.50;99.90;;;;;;5053382;28;20052;-74
2024/01/23 09:08:17;;;;;;;3.45;1.40;;;6.50;99.90;;;;;;5046100;28;20040;-74
2024/01/23 09:10:43;;;;;;;14.95;2.13;;;6.50;99.90;;;;;;5064030;28;20109;-74
2024/01/23 09:13:09;;;;;;;9.90;1.52;;;6.60;99.90;;;;;;5068405;28;20400;-73
2024/01/23 09:15:36;;;;;;;15.73;1.67;;;6.60;99.90;;;;;;5058200;28;20043;-74
2024/01/23 09:18:01;;;;;;;13.95;1.58;;;6.70;99.90;;;;;;5053115;28;20270;-74
2024/01/23 09:20:27;;;;;;;15.70;2.17;;;6.80;99.90;;;;;;5047243;28;20049;-73
2024/01/23 09:22:53;;;;;;;7.20;1.67;;;6.90;99.90;;;;;;5035051;28;20045;-74
2024/01/23 09:25:19;;;;;;;10.55;1.70;;;7.00;99.90;;;;;;5063119;28;20047;-73
2024/01/23 09:27:45;;;;;;;12.80;2.38;;;7.20;99.90;;;;;;5051627;28;20272;-74
2024/01/23 09:30:12;;;;;;;13.82;2.03;;;7.20;99.90;;;;;;5060865;28;20045;-74
2024/01/23 09:32:37;;;;;;;20.88;2.42;;;7.30;99.90;;;;;;5060836;28;20049;-73
2024/01/23 09:35:03;;;;;;;8.32;1.45;;;7.30;99.90;;;;;;5013772;28;20041;-74
2024/01/23 09:37:29;;;;;;;20.92;2.17;;;7.40;99.90;;;;;;5070385;28;20108;-74
2024/01/23 09:39:55;;;;;;;13.40;2.65;;;7.50;99.90;;;;;;5063487;28;20033;-74
2024/01/23 09:42:23;;;;;;;13.32;1.60;;;7.60;99.90;;;;;;5037251;28;20052;-73
2024/01/23 09:44:53;;;;;;;4.90;1.60;;;7.60;99.90;;;;;;5071944;28;20045;-74
2024/01/23 09:47:20;;;;;;;18.02;1.80;;;7.70;99.90;;;;;;5056848;28;20045;-74
2024/01/23 09:49:47;;;;;;;15.07;1.90;;;7.90;99.90;;;;;;5061534;28;20041;-74
2024/01/23 09:52:13;;;;;;;19.77;2.50;;;8.10;99.90;;;;;;5039411;28;20055;-74
2024/01/23 09:54:40;;;;;;;3.65;1.15;;;8.50;99.90;;;;;;5050174;28;20510;-74
2024/01/23 09:57:07;;;;;;;11.32;2.67;;;8.80;99.90;;;;;;5048949;28;20491;-74
2024/01/23 09:59:33;;;;;;;14.52;2.40;;;9.00;99.90;;;;;;5057273;28;20153;-74
2024/01/23 10:01:59;;;;;;;11.55;1.70;;;9.10;99.90;;;;;;5051672;28;20061;-74
2024/01/23 10:04:25;;;;;;;13.38;2.85;;;9.10;99.90;;;;;;5054597;28;20040;-73
2024/01/23 10:06:51;;;;;;;17.95;2.13;;;9.30;99.90;;;;;;5029714;28;20051;-73
2024/01/23 10:09:18;;;;;;;17.10;3.33;;;9.20;99.90;;;;;;5062659;28;20044;-73
2024/01/23 10:11:43;;;;;;;14.00;2.17;;;9.10;99.90;;;;;;5062017;28;20075;-73
2024/01/23 10:14:09;;;;;;;19.33;2.97;;;8.90;99.90;;;;;;5063251;28;20032;-73
2024/01/23 10:16:39;;;;;;;16.08;2.05;;;8.80;99.90;;;;;;5061652;28;20052;-73
2024/01/23 10:19:11;;;;;;;11.27;2.33;;;8.60;99.90;;;;;;5058583;28;20048;-74
2024/01/23 10:21:37;;;;;;;19.40;3.13;;;8.50;99.90;;;;;;5062867;28;20082;-74
2024/01/23 10:24:02;;;;;;;18.00;1.75;;;8.30;99.90;;;;;;5044733;28;20048;-74
2024/01/23 10:26:28;;;;;;;6.78;1.85;;;8.20;99.90;;;;;;5062514;28;20048;-73
2024/01/23 10:28:54;;;;;;;23.70;2.25;;;8.00;99.90;;;;;;5047066;28;20045;-73
2024/01/23 10:31:19;;;;;;;11.13;1.25;;;7.90;99.90;;;;;;5066166;28;20354;-73
2024/01/23 10:33:45;;;;;;;20.27;2.90;;;7.80;99.90;;;;;;5057329;28;20052;-73
2024/01/23 10:36:11;;;;;;;3.83;1.00;;;7.80;99.90;;;;;;5060846;28;20129;-73
2024/01/23 10:38:37;;;;;;;9.80;2.35;;;7.70;99.90;;;;;;5071522;28;20155;-73
2024/01/23 10:41:04;;;;;;;18.40;1.88;;;7.70;99.90;;;;;;5061900;28;20520;-73
2024/01/23 10:43:30;;;;;;;9.82;2.03;;;7.60;99.90;;;;;;5061552;28;20044;-73
2024/01/23 10:46:04;;;;;;;17.88;2.70;;;7.60;99.90;;;;;;5073328;28;20040;-73
2024/01/23 10:48:30;;;;;;;16.85;2.33;;;7.70;99.90;;;;;;5053037;28;20400;-73
2024/01/23 10:51:07;;;;;;;14.55;2.35;;;7.70;99.90;;;;;;5038056;28;20408;-73
2024/01/23 10:53:41;;;;;;;11.18;1.58;;;7.70;99.90;;;;;;5060564;28;20278;-73
2024/01/23 10:56:13;;;;;;;11.70;2.22;;;7.70;99.90;;;;;;5046103;28;20049;-73
2024/01/23 10:58:41;;;;;;;9.90;2.13;;;7.70;99.90;;;;;;5076475;28;20063;-73
2024/01/23 11:01:10;;;;;;;20.40;2.42;;;7.80;99.90;;;;;;5052290;28;20049;-73
2024/01/23 11:03:37;;;;;;;5.72;1.40;;;7.80;99.90;;;;;;5043525;28;20075;-74
2024/01/23 11:06:19;;;;;;;8.77;1.50;;;7.80;99.90;;;;;;5039651;28;20049;-74
2024/01/23 11:09:08;;;;;;;;;;;7.80;99.90;;;;;;5058776;28;20029;-74
2024/01/23 11:12:04;;;;;;;9.82;1.42;;;7.80;99.90;;;;;;5065896;28;19935;-74
2024/01/23 11:14:46;;;;;;;14.02;2.20;;;7.90;99.90;;;;;;5029396;28;20071;-74
2024/01/23 11:17:15;;;;;;;11.13;1.88;;;8.00;99.90;;;;;;5065483;28;20041;-76
2024/01/23 11:19:42;;;;;;;18.45;2.22;;;8.10;99.90;;;;;;5050283;28;20142;-74
2024/01/23 11:22:09;;;;;;;9.88;1.90;;;8.20;99.90;;;;;;5061303;28;20049;-74
2024/01/23 11:24:39;;;;;;;16.73;1.95;;;8.30;99.90;;;;;;5061414;28;20048;-74
2024/01/23 11:27:06;;;;;;;11.13;1.77;;;8.30;99.90;;;;;;5058484;28;20074;-75
2024/01/23 11:29:33;;;;;;;7.32;1.23;;;8.30;99.90;;;;;;5032881;28;20041;-74
2024/01/23 11:31:58;;;;;;;11.05;1.80;;;8.40;99.90;;;;;;5061360;28;20060;-74
2024/01/23 11:34:25;;;;;;;11.00;1.77;;;8.40;99.90;;;;;;5056313;28;20101;-74
2024/01/23 11:36:51;;;;;;;11.82;1.55;;;8.50;99.90;;;;;;5077916;28;20068;-75
2024/01/23 11:39:22;;;;;;;30.77;2.83;;;8.40;99.90;;;;;;5049187;28;20051;-75
2024/01/23 11:41:49;;;;;;;11.60;1.87;;;8.50;99.90;;;;;;5077408;28;20416;-74
2024/01/23 11:44:16;;;;;;;20.27;2.75;;;8.40;99.90;;;;;;5059612;28;20052;-74
2024/01/23 11:46:43;;;;;;;13.15;1.63;;;8.40;99.90;;;;;;5048068;28;20043;-74
2024/01/23 11:49:12;;;;;;;18.10;2.55;;;8.30;99.90;;;;;;5061242;28;20100;-74
2024/01/23 11:51:38;;;;;;;10.18;2.25;;;8.30;99.90;;;;;;5060702;28;20044;-74
2024/01/23 11:54:11;;;;;;;6.28;1.33;;;8.30;99.90;;;;;;5061346;28;20040;-74
2024/01/23 11:56:38;;;;;;;11.55;1.80;;;8.20;99.90;;;;;;5049094;28;20040;-74
2024/01/23 11:59:03;;;;;;;12.93;2.28;;;8.20;99.90;;;;;;5075011;28;20068;-74
2024/01/23 12:01:30;;;;;;;10.30;1.60;;;8.30;99.90;;;;;;5061037;28;20068;-74
2024/01/23 12:03:57;;;;;;;10.02;2.28;;;8.30;99.90;;;;;;5051078;28;20045;-74
2024/01/23 12:06:23;;;;;;;22.33;2.47;;;8.20;99.90;;;;;;5057425;28;20464;-74
2024/01/23 12:08:50;;;;;;;14.25;2.03;;;8.20;99.90;;;;;;5049247;28;20041;-74
2024/01/23 12:11:16;;;;;;;9.75;1.23;;;8.30;99.90;;;;;;5077502;28;20056;-74
2024/01/23 12:13:47;;;;;;;9.60;2.22;;;8.30;99.90;;;;;;5062955;28;20088;-74
2024/01/23 12:16:17;;;;;;;13.70;1.90;;;8.30;99.90;;;;;;5070749;28;20056;-74
2024/01/23 12:18:45;;;;;;;7.55;1.77;;;8.20;99.90;;;;;;5055833;28;20052;-74
2024/01/23 12:21:11;;;;;;;11.98;2.70;;;8.30;99.90;;;;;;5080331;28;20032;-74
2024/01/23 12:23:38;;;;;;;19.75;3.20;;;8.30;99.90;;;;;;5081076;28;20162;-74
2024/01/23 12:26:04;;;;;;;7.80;1.67;;;8.30;99.90;;;;;;5062603;28;20418;-74
2024/01/23 12:28:32;;;;;;;16.33;1.55;;;8.30;99.90;;;;;;5071826;28;20032;-74
2024/01/23 12:30:58;;;;;;;23.77;2.72;;;8.40;99.90;;;;;;5050759;28;20037;-74
2024/01/23 12:33:26;;;;;;;19.58;2.53;;;8.50;99.90;;;;;;5063590;28;20094;-74
2024/01/23 12:35:52;;;;;;;4.65;1.48;;;8.50;99.90;;;;;;5057667;28;20032;-75
2024/01/23 12:38:19;;;;;;;11.88;1.65;;;8.50;99.90;;;;;;5063852;28;20045;-75
2024/01/23 12:40:45;;;;;;;17.52;2.22;;;8.60;99.90;;;;;;5080780;28;20163;-74
2024/01/23 12:43:13;;;;;;;26.40;3.03;;;8.60;99.90;;;;;;5063963;28;20441;-74
2024/01/23 12:45:38;;;;;;;15.27;2.13;;;8.70;99.90;;;;;;5077321;28;20067;-74
2024/01/23 12:48:10;;;;;;;15.60;2.13;;;8.70;99.90;;;;;;5064590;28;20044;-75